KLAA/LAA METAR and TAF weather

Enter ICAO airport designator
Station Type Date Time Source
KLAA METAR 2024/04/15 08:53 UTC NOAA

KLAA 150853Z AUTO 08006KT 10SM CLR 07/M05 A2969 RMK AO2 SLP012 T00671050 58020


Station Type Date Time Source
KLAA Decoded METAR 2024/04/15 08:53 UTC NOAA

LAMAR MUNICIPAL AIRPORT, CO, United States (KLAA) 38-04N 102-41W 1119M
Apr 15, 2024 - 04:53 AM EDT / 2024.04.15 0853 UTC
Wind: from the E (080 degrees) at 7 MPH (6 KT):0
Visibility: 10 mile(s):0
Sky conditions: clear
Temperature: 44.1 F (6.7 C)
Dew Point: 23.0 F (-5.0 C)
Relative Humidity: 42%
Pressure (altimeter): 29.69 in. Hg (1005 hPa)
Pressure tendency: 0.06 inches (2.0 hPa) lower than three hours ago
ob: KLAA 150853Z AUTO 08006KT 10SM CLR 07/M05 A2969 RMK AO2 SLP012 T00671050 58020
cycle: 9

Station Type Date Time Source
KLAA TAF UTC NOAA

Error!

Example: see airport list